createdAt,value
2019-02-03T00:00:45.239Z,28.70
2019-02-03T00:01:44.939Z,28.40
2019-02-03T00:02:45.266Z,28.60
2019-02-03T00:03:44.764Z,29.40
2019-02-03T00:04:44.676Z,28.20
2019-02-03T00:06:44.078Z,27.50
2019-02-03T00:07:26.615Z,29.10
2019-02-03T00:08:26.528Z,30.20
2019-02-03T00:09:26.689Z,28.50
2019-02-03T00:10:26.352Z,30.90
2019-02-03T00:11:26.266Z,29.30
2019-02-03T00:12:26.178Z,28.60
2019-02-03T00:13:26.090Z,28.80
2019-02-03T00:14:26.002Z,29.10
2019-02-03T00:15:25.917Z,30.10
2019-02-03T00:16:25.840Z,29.90
2019-02-03T00:17:25.741Z,31.90
2019-02-03T00:18:25.653Z,30.80
2019-02-03T00:19:25.569Z,32.10
2019-02-03T00:20:25.690Z,28.70
2019-02-03T00:21:25.391Z,31.20
2019-02-03T00:22:25.303Z,30.30
2019-02-03T00:23:25.223Z,30.20
2019-02-03T00:24:25.128Z,30.50
2019-02-03T00:25:25.041Z,31.00
2019-02-03T00:26:24.954Z,31.30
2019-02-03T00:27:24.855Z,30.30
2019-02-03T00:28:24.779Z,31.00
2019-02-03T00:29:24.694Z,30.30
2019-02-03T00:30:24.603Z,31.00
2019-02-03T00:31:24.505Z,29.50
2019-02-03T00:32:24.418Z,30.50
2019-02-03T00:33:24.329Z,29.40
2019-02-03T00:34:24.246Z,32.50
2019-02-03T00:35:24.154Z,30.10
2019-02-03T00:36:24.067Z,30.70
2019-02-03T00:37:23.980Z,29.60
2019-02-03T00:38:23.901Z,29.70
2019-02-03T00:39:23.820Z,28.40
2019-02-03T00:40:23.719Z,28.40
2019-02-03T00:41:23.705Z,28.70
2019-02-03T00:42:23.542Z,27.70
2019-02-03T00:43:23.455Z,28.50
2019-02-03T00:44:23.368Z,27.50
2019-02-03T00:45:23.280Z,28.00
2019-02-03T00:46:23.192Z,28.00
2019-02-03T00:47:23.118Z,29.70
2019-02-03T00:48:23.018Z,28.10
2019-02-03T00:49:22.930Z,29.10
2019-02-03T00:50:22.953Z,28.10
2019-02-03T00:51:22.757Z,28.50
2019-02-03T00:52:22.669Z,27.90
2019-02-03T00:53:22.582Z,28.00
2019-02-03T00:54:22.494Z,27.60
2019-02-03T00:55:22.407Z,27.60
2019-02-03T00:56:22.319Z,26.20
2019-02-03T00:57:22.231Z,27.10
2019-02-03T00:58:22.144Z,28.30
2019-02-03T00:59:22.058Z,28.30
2019-02-03T01:00:21.970Z,26.00
2019-02-03T01:01:21.882Z,26.80
2019-02-03T01:02:21.802Z,28.60
2019-02-03T01:03:21.708Z,28.70
2019-02-03T01:04:21.620Z,27.90
2019-02-03T01:05:21.532Z,27.10
2019-02-03T01:06:21.444Z,26.80
2019-02-03T01:07:27.711Z,27.20
2019-02-03T01:08:21.271Z,26.90
2019-02-03T01:09:21.183Z,25.30
2019-02-03T01:10:21.096Z,27.60
2019-02-03T01:11:21.007Z,27.70
2019-02-03T01:12:20.921Z,27.10
2019-02-03T01:13:20.833Z,26.70
2019-02-03T01:14:20.746Z,28.00
2019-02-03T01:15:20.658Z,27.30
2019-02-03T01:16:20.572Z,27.10
2019-02-03T01:17:20.483Z,26.90
2019-02-03T01:18:20.397Z,28.00
2019-02-03T01:19:20.317Z,27.30
2019-02-03T01:20:20.221Z,27.70
2019-02-03T01:21:20.133Z,28.60
2019-02-03T01:22:20.046Z,28.20
2019-02-03T01:23:19.948Z,28.10
2019-02-03T01:24:19.872Z,28.00
2019-02-03T01:25:19.784Z,29.30
2019-02-03T01:26:19.686Z,28.20
2019-02-03T01:27:19.600Z,29.20
2019-02-03T01:28:19.510Z,30.00
2019-02-03T01:29:19.423Z,29.80
2019-02-03T01:30:19.337Z,29.60
2019-02-03T01:31:19.248Z,30.80
2019-02-03T01:32:19.173Z,31.20
2019-02-03T01:33:19.074Z,31.70
2019-02-03T01:34:18.985Z,33.30
2019-02-03T01:35:18.905Z,32.50
2019-02-03T01:36:18.811Z,32.80
2019-02-03T01:37:18.724Z,34.00
2019-02-03T01:38:18.635Z,32.20
2019-02-03T01:39:18.549Z,35.50
2019-02-03T01:40:18.476Z,34.50
2019-02-03T01:41:18.373Z,35.00
2019-02-03T01:42:18.290Z,34.30
2019-02-03T01:43:18.202Z,34.40
2019-02-03T01:44:18.111Z,34.90
2019-02-03T01:45:18.073Z,36.20
2019-02-03T01:46:17.936Z,35.70
2019-02-03T01:47:17.850Z,36.10
2019-02-03T01:48:17.774Z,36.10
2019-02-03T01:49:17.674Z,36.60
2019-02-03T01:50:17.587Z,36.10
2019-02-03T01:51:17.506Z,37.60
2019-02-03T01:52:17.412Z,36.60
2019-02-03T01:53:17.326Z,36.30
2019-02-03T01:54:17.237Z,38.40
2019-02-03T01:55:17.152Z,37.90
2019-02-03T01:56:17.062Z,40.00
2019-02-03T01:57:16.975Z,38.20
2019-02-03T01:58:16.887Z,37.80
2019-02-03T01:59:16.802Z,38.70
2019-02-03T02:00:16.712Z,39.90
2019-02-03T02:01:16.626Z,38.80
2019-02-03T02:02:16.537Z,39.80
2019-02-03T02:03:16.451Z,40.50
2019-02-03T02:04:16.375Z,40.40
2019-02-03T02:05:16.277Z,40.00
2019-02-03T02:06:16.188Z,40.50
2019-02-03T02:07:16.103Z,40.00
2019-02-03T02:08:16.019Z,42.90
2019-02-03T02:09:15.926Z,40.30
2019-02-03T02:10:15.838Z,39.90
2019-02-03T02:11:15.754Z,41.60
2019-02-03T02:12:15.664Z,41.90
2019-02-03T02:13:15.577Z,40.60
2019-02-03T02:14:15.490Z,41.60
2019-02-03T02:15:15.403Z,42.30
2019-02-03T02:16:15.314Z,41.90
2019-02-03T02:17:15.228Z,43.50
2019-02-03T02:18:15.139Z,43.80
2019-02-03T02:19:15.052Z,43.10
2019-02-03T02:20:14.965Z,41.50
2019-02-03T02:21:14.878Z,43.80
2019-02-03T02:22:14.803Z,42.60
2019-02-03T02:23:14.702Z,42.00
2019-02-03T02:24:14.614Z,44.90
2019-02-03T02:25:14.528Z,43.30
2019-02-03T02:26:14.439Z,43.40
2019-02-03T02:27:14.360Z,43.50
2019-02-03T02:28:14.265Z,44.20
2019-02-03T02:29:14.178Z,43.80
2019-02-03T02:30:14.090Z,44.10
2019-02-03T02:31:14.005Z,43.10
2019-02-03T02:32:13.915Z,41.40
2019-02-03T02:33:13.831Z,43.70
2019-02-03T02:34:13.756Z,42.60
2019-02-03T02:35:13.655Z,43.10
2019-02-03T02:36:13.566Z,42.80
2019-02-03T02:37:13.484Z,43.00
2019-02-03T02:38:13.395Z,44.30
2019-02-03T02:39:13.303Z,44.70
2019-02-03T02:40:13.541Z,42.50
2019-02-03T02:41:13.132Z,41.70
2019-02-03T02:42:13.044Z,41.10
2019-02-03T02:43:12.961Z,41.70
2019-02-03T02:44:12.867Z,41.60
2019-02-03T02:45:12.781Z,42.70
2019-02-03T02:46:12.692Z,42.60
2019-02-03T02:47:12.606Z,42.50
2019-02-03T02:48:12.518Z,41.90
2019-02-03T02:49:12.430Z,41.40
2019-02-03T02:50:12.343Z,42.00
2019-02-03T02:51:12.257Z,42.20
2019-02-03T02:52:12.181Z,42.30
2019-02-03T02:53:12.083Z,41.50
2019-02-03T02:54:11.993Z,41.70
2019-02-03T02:55:11.907Z,41.20
2019-02-03T02:56:11.818Z,40.30
2019-02-03T02:57:11.732Z,40.60
2019-02-03T02:58:11.643Z,40.60
2019-02-03T02:59:11.545Z,41.10
2019-02-03T03:00:11.492Z,41.30
2019-02-03T03:01:11.387Z,41.80
2019-02-03T03:02:11.293Z,41.10
2019-02-03T03:03:11.199Z,40.30
2019-02-03T03:04:11.113Z,41.50
2019-02-03T03:05:11.032Z,41.50
2019-02-03T03:06:10.943Z,41.00
2019-02-03T03:07:10.846Z,39.40
2019-02-03T03:08:19.039Z,40.90
2019-02-03T03:09:10.671Z,40.80
2019-02-03T03:10:10.583Z,41.00
2019-02-03T03:11:10.496Z,40.80
2019-02-03T03:12:10.407Z,41.20
2019-02-03T03:13:10.323Z,39.90
2019-02-03T03:14:10.235Z,40.00
2019-02-03T03:15:10.145Z,40.90
2019-02-03T03:16:10.066Z,40.60
2019-02-03T03:17:09.971Z,40.20
2019-02-03T03:18:09.883Z,40.60
2019-02-03T03:19:09.795Z,40.70
2019-02-03T03:20:09.708Z,40.10
2019-02-03T03:21:09.621Z,40.20
2019-02-03T03:22:09.539Z,40.50
2019-02-03T03:23:09.447Z,40.20
2019-02-03T03:24:09.360Z,39.90
2019-02-03T03:25:09.270Z,41.50
2019-02-03T03:26:09.186Z,40.90
2019-02-03T03:27:09.097Z,41.90
2019-02-03T03:28:09.009Z,41.70
2019-02-03T03:29:08.934Z,41.40
2019-02-03T03:30:08.840Z,41.00
2019-02-03T03:31:08.761Z,40.00
2019-02-03T03:32:08.661Z,41.30
2019-02-03T03:33:08.573Z,41.40
2019-02-03T03:34:08.485Z,41.50
2019-02-03T03:35:08.398Z,41.40
2019-02-03T03:36:08.310Z,43.20
2019-02-03T03:37:08.234Z,40.30
2019-02-03T03:38:08.139Z,43.40
2019-02-03T03:39:08.047Z,40.80
2019-02-03T03:40:07.962Z,40.70
2019-02-03T03:41:07.872Z,43.10
2019-02-03T03:42:07.855Z,43.10
2019-02-03T03:43:07.710Z,42.40
2019-02-03T03:44:07.612Z,42.40
2019-02-03T03:45:07.523Z,40.40
2019-02-03T03:46:07.441Z,41.50
2019-02-03T03:47:07.348Z,42.30
2019-02-03T03:48:07.261Z,42.50
2019-02-03T03:49:07.174Z,41.60
2019-02-03T03:50:07.086Z,43.30
2019-02-03T03:51:07.000Z,43.70
2019-02-03T03:52:06.913Z,41.20
2019-02-03T03:53:06.823Z,43.00
2019-02-03T03:54:06.738Z,43.40
2019-02-03T03:55:06.649Z,44.80
2019-02-03T03:56:06.562Z,43.60
2019-02-03T03:57:06.475Z,44.30
2019-02-03T03:58:06.387Z,43.20
2019-02-03T03:59:06.301Z,40.50
2019-02-03T04:00:06.216Z,43.10
2019-02-03T04:01:06.137Z,41.90
2019-02-03T04:02:06.038Z,43.60
2019-02-03T04:03:05.953Z,43.00
2019-02-03T04:04:05.864Z,42.80
2019-02-03T04:05:05.777Z,43.20
2019-02-03T04:06:05.692Z,42.60
2019-02-03T04:07:05.600Z,43.20
2019-02-03T04:08:05.515Z,41.70
2019-02-03T04:09:05.427Z,45.30
2019-02-03T04:10:05.349Z,44.60
2019-02-03T04:11:05.250Z,44.60
2019-02-03T04:12:05.164Z,45.00
2019-02-03T04:13:05.090Z,43.10
2019-02-03T04:14:04.996Z,44.40
2019-02-03T04:15:04.901Z,43.20
2019-02-03T04:16:04.820Z,43.90
2019-02-03T04:17:04.726Z,43.50
2019-02-03T04:18:04.639Z,42.60
2019-02-03T04:19:04.552Z,43.90
2019-02-03T04:20:04.466Z,45.60
2019-02-03T04:21:04.378Z,45.40
2019-02-03T04:22:04.306Z,42.80
2019-02-03T04:23:04.202Z,45.40
2019-02-03T04:24:04.115Z,43.80
2019-02-03T04:25:04.027Z,45.20
2019-02-03T04:26:03.941Z,43.80
2019-02-03T04:27:03.857Z,44.70
2019-02-03T04:28:03.765Z,44.50
2019-02-03T04:29:03.691Z,43.80
2019-02-03T04:30:03.592Z,45.90
2019-02-03T04:31:03.520Z,43.10
2019-02-03T04:32:03.420Z,43.30
2019-02-03T04:33:03.345Z,43.50
2019-02-03T04:34:03.242Z,43.00
2019-02-03T04:35:03.153Z,43.70
2019-02-03T04:36:03.067Z,43.90
2019-02-03T04:37:02.979Z,42.70
2019-02-03T04:38:02.892Z,42.80
2019-02-03T04:39:03.105Z,42.60
2019-02-03T04:40:02.718Z,42.60
2019-02-03T04:41:02.628Z,43.70
2019-02-03T04:42:02.541Z,43.80
2019-02-03T04:43:02.454Z,42.90
2019-02-03T04:44:02.367Z,43.10
2019-02-03T04:45:02.282Z,43.10
2019-02-03T04:46:02.194Z,42.70
2019-02-03T04:47:02.123Z,43.90
2019-02-03T04:48:02.024Z,43.40
2019-02-03T04:49:01.929Z,43.40
2019-02-03T04:50:01.854Z,42.60
2019-02-03T04:51:01.755Z,44.40
2019-02-03T04:52:01.671Z,42.70
2019-02-03T04:53:01.579Z,43.50
2019-02-03T04:54:01.744Z,44.00
2019-02-03T04:55:01.406Z,42.00
2019-02-03T04:56:01.318Z,42.30
2019-02-03T04:57:01.229Z,41.80
2019-02-03T04:58:01.144Z,43.30
2019-02-03T04:59:01.069Z,41.90
2019-02-03T05:00:00.970Z,41.10
2019-02-03T05:01:01.049Z,41.80
2019-02-03T05:02:00.798Z,40.40
2019-02-03T05:03:00.706Z,40.50
2019-02-03T05:04:00.620Z,41.80
2019-02-03T05:05:00.536Z,40.10
2019-02-03T05:06:00.445Z,40.70
2019-02-03T05:07:00.356Z,41.10
2019-02-03T05:08:00.270Z,40.60
2019-02-03T05:09:10.783Z,41.70
2019-02-03T05:10:00.103Z,40.60
2019-02-03T05:11:00.007Z,41.70
2019-02-03T05:11:59.919Z,41.80
2019-02-03T05:12:59.831Z,41.70
2019-02-03T05:13:59.745Z,42.20
2019-02-03T05:14:59.661Z,40.70
2019-02-03T05:15:59.574Z,42.60
2019-02-03T05:16:59.484Z,41.50
2019-02-03T05:17:59.397Z,42.90
2019-02-03T05:18:59.307Z,45.20
2019-02-03T05:19:59.220Z,45.70
2019-02-03T05:20:59.133Z,44.30
2019-02-03T05:21:59.047Z,44.00
2019-02-03T05:22:58.958Z,44.70
2019-02-03T05:23:59.521Z,45.50
2019-02-03T05:24:59.323Z,45.70
2019-02-03T05:25:59.242Z,45.30
2019-02-03T05:26:59.571Z,47.10
2019-02-03T05:30:42.275Z,44.30
2019-02-03T05:34:24.332Z,43.70
2019-02-03T05:35:22.894Z,47.00
2019-02-03T05:36:36.714Z,47.50
2019-02-03T05:39:25.098Z,45.80
2019-02-03T05:40:22.252Z,47.90
2019-02-03T05:41:22.361Z,45.10
2019-02-03T05:42:22.274Z,45.00
2019-02-03T05:43:22.333Z,44.10
2019-02-03T05:45:21.810Z,45.30
2019-02-03T05:46:21.772Z,47.20
2019-02-03T05:48:22.502Z,44.90
2019-02-03T05:49:21.463Z,45.10
2019-02-03T05:50:21.492Z,46.00
2019-02-03T05:51:21.285Z,45.20
2019-02-03T05:52:21.399Z,44.90
2019-02-03T05:53:21.313Z,46.70
2019-02-03T05:56:21.390Z,44.80
2019-02-03T05:57:21.121Z,47.50
2019-02-03T05:58:22.038Z,45.90
2019-02-03T06:00:20.699Z,47.90
2019-02-03T06:01:21.039Z,46.80
2019-02-03T06:07:23.469Z,46.60
2019-02-03T06:10:02.980Z,44.80
2019-02-03T06:15:02.744Z,46.80
2019-02-03T06:20:43.265Z,46.70
2019-02-03T06:23:43.214Z,47.00
2019-02-03T06:26:42.788Z,46.70
2019-02-03T06:28:55.376Z,48.00
2019-02-03T06:31:56.252Z,45.50
2019-02-03T06:33:55.668Z,46.30
2019-02-03T06:35:55.093Z,47.40
2019-02-03T06:48:01.032Z,47.80
2019-02-03T06:49:00.591Z,46.90
2019-02-03T06:50:00.929Z,45.20
2019-02-03T06:51:00.465Z,45.70
2019-02-03T06:52:00.376Z,43.30
2019-02-03T09:36:55.618Z,34.90
2019-02-03T09:41:00.271Z,37.70
2019-02-03T09:41:55.376Z,33.20
2019-02-03T09:42:54.884Z,31.30
2019-02-03T09:43:54.797Z,31.60
2019-02-03T09:44:54.710Z,34.00
2019-02-03T09:45:54.824Z,31.60
2019-02-03T09:46:54.549Z,33.10
2019-02-03T09:47:54.448Z,33.60
2019-02-03T09:48:56.768Z,33.10
2019-02-03T09:49:54.776Z,33.30
2019-02-03T09:51:54.098Z,33.20
2019-02-03T09:52:55.768Z,32.00
2019-02-03T09:55:54.501Z,32.30
2019-02-03T09:58:53.508Z,31.70
2019-02-03T09:59:53.825Z,33.00
2019-02-03T10:00:55.070Z,32.10
2019-02-03T10:02:56.531Z,31.70
2019-02-03T10:04:53.185Z,31.70
2019-02-03T10:05:56.807Z,31.20
2019-02-03T10:07:53.114Z,30.30
2019-02-03T10:09:53.498Z,30.90
2019-02-03T10:10:52.652Z,31.40
2019-02-03T10:11:53.126Z,30.70
2019-02-03T10:12:52.275Z,30.70
2019-02-03T10:13:53.416Z,29.80
2019-02-03T10:14:52.300Z,31.20
2019-02-03T10:15:52.213Z,31.60
2019-02-03T10:16:52.127Z,31.30
2019-02-03T10:17:51.837Z,29.80
2019-02-03T10:18:51.755Z,32.10
2019-02-03T10:19:51.668Z,31.00
2019-02-03T10:20:51.576Z,30.20
2019-02-03T10:21:51.487Z,30.10
2019-02-03T10:22:51.404Z,28.90
2019-02-03T10:23:51.528Z,28.80
2019-02-03T10:24:51.226Z,29.20
2019-02-03T10:25:51.140Z,30.10
2019-02-03T10:26:51.063Z,30.20
2019-02-03T10:28:51.091Z,29.60
2019-02-03T10:29:50.801Z,28.70
2019-02-03T10:30:50.715Z,28.60
2019-02-03T10:31:51.429Z,30.20
2019-02-03T10:32:50.752Z,30.80
2019-02-03T10:33:50.453Z,29.20
2019-02-03T10:34:51.977Z,30.10
2019-02-03T10:35:50.277Z,30.70
2019-02-03T10:37:50.102Z,30.90
2019-02-03T10:38:53.064Z,30.40
2019-02-03T10:39:49.927Z,29.70
2019-02-03T10:41:50.302Z,29.30
2019-02-03T10:42:49.667Z,29.50
2019-02-03T10:43:49.778Z,29.50
2019-02-03T10:44:52.611Z,31.00
2019-02-03T10:45:49.403Z,30.40
2019-02-03T10:46:49.317Z,29.90
2019-02-03T10:47:49.438Z,31.10
2019-02-03T10:48:49.197Z,31.90
2019-02-03T10:49:49.053Z,30.70
2019-02-03T10:50:48.965Z,30.00
2019-02-03T10:51:49.005Z,30.60
2019-02-03T10:52:48.790Z,30.10
2019-02-03T10:53:48.906Z,29.60
2019-02-03T10:54:48.616Z,30.80
2019-02-03T10:55:48.731Z,30.20
2019-02-03T10:56:48.442Z,30.70
2019-02-03T10:57:48.366Z,30.70
2019-02-03T10:58:48.281Z,31.40
2019-02-03T10:59:48.193Z,30.20
2019-02-03T11:00:48.104Z,30.40
2019-02-03T11:01:48.018Z,29.90
2019-02-03T11:02:47.929Z,29.40
2019-02-03T11:03:47.841Z,30.00
2019-02-03T11:04:47.755Z,30.40
2019-02-03T11:05:47.666Z,29.20
2019-02-03T11:06:47.580Z,28.60
2019-02-03T11:07:47.492Z,30.50
2019-02-03T11:08:47.405Z,30.30
2019-02-03T11:09:47.317Z,30.30
2019-02-03T11:10:47.229Z,29.50
2019-02-03T11:11:47.143Z,28.80
2019-02-03T11:12:47.058Z,30.10
2019-02-03T11:13:46.971Z,30.20
2019-02-03T11:14:46.881Z,28.50
2019-02-03T11:15:46.793Z,29.20
2019-02-03T11:16:46.717Z,28.20
2019-02-03T11:17:46.618Z,28.70
2019-02-03T11:18:46.531Z,28.00
2019-02-03T11:19:46.456Z,30.10
2019-02-03T11:20:46.356Z,28.50
2019-02-03T11:21:46.269Z,27.50
2019-02-03T11:22:46.192Z,28.30
2019-02-03T11:23:46.106Z,28.70
2019-02-03T11:24:46.018Z,26.60
2019-02-03T11:25:45.931Z,27.60
2019-02-03T11:26:45.979Z,26.40
2019-02-03T11:27:45.756Z,28.10
2019-02-03T11:28:45.669Z,28.40
2019-02-03T11:29:45.581Z,27.10
2019-02-03T11:30:45.494Z,27.90
2019-02-03T11:31:45.459Z,27.30
2019-02-03T11:32:45.319Z,26.70
2019-02-03T11:33:45.233Z,26.10
2019-02-03T11:34:45.144Z,26.60
2019-02-03T11:35:45.058Z,28.20
2019-02-03T11:36:44.970Z,27.40
2019-02-03T11:37:44.885Z,27.90
2019-02-03T11:38:44.808Z,28.40
2019-02-03T11:39:44.720Z,27.70
2019-02-03T11:40:44.639Z,27.70
2019-02-03T11:41:49.369Z,28.50
2019-02-03T11:42:44.460Z,28.30
2019-02-03T11:43:44.370Z,27.20
2019-02-03T11:44:44.283Z,27.20
2019-02-03T11:45:44.195Z,27.20
2019-02-03T11:46:44.109Z,27.00
2019-02-03T11:47:44.020Z,26.00
2019-02-03T11:48:43.935Z,28.30
2019-02-03T11:49:43.846Z,26.60
2019-02-03T11:50:43.759Z,27.40
2019-02-03T11:51:43.671Z,26.60
2019-02-03T11:52:43.588Z,26.30
2019-02-03T11:53:43.509Z,26.30
2019-02-03T11:54:43.421Z,24.70
2019-02-03T11:55:43.335Z,25.30
2019-02-03T11:56:43.247Z,25.90
2019-02-03T11:57:43.159Z,26.40
2019-02-03T11:58:43.071Z,26.20
2019-02-03T11:59:42.985Z,25.40
2019-02-03T12:00:42.901Z,25.60
2019-02-03T12:01:42.810Z,25.20
2019-02-03T12:02:42.723Z,25.80
2019-02-03T12:03:42.635Z,25.60
2019-02-03T12:04:42.548Z,24.90
2019-02-03T12:05:42.460Z,25.40
2019-02-03T12:06:42.375Z,25.00
2019-02-03T12:07:42.297Z,25.20
2019-02-03T12:08:42.211Z,24.90
2019-02-03T12:09:42.136Z,25.50
2019-02-03T12:10:42.037Z,25.10
2019-02-03T12:11:41.947Z,25.30
2019-02-03T12:12:41.863Z,26.00
2019-02-03T12:13:41.783Z,24.50
2019-02-03T12:14:41.687Z,25.10
2019-02-03T12:15:41.599Z,24.60
2019-02-03T12:16:41.518Z,25.10
2019-02-03T12:17:41.424Z,25.10
2019-02-03T12:18:41.471Z,24.70
2019-02-03T12:19:41.250Z,25.60
2019-02-03T12:20:41.176Z,25.50
2019-02-03T12:21:41.088Z,25.10
2019-02-03T12:22:40.999Z,24.50
2019-02-03T12:23:41.008Z,25.00
2019-02-03T12:24:40.827Z,24.20
2019-02-03T12:25:40.737Z,24.80
2019-02-03T12:26:40.650Z,24.20
2019-02-03T12:27:40.563Z,24.30
2019-02-03T12:28:40.488Z,23.90
2019-02-03T12:29:40.413Z,24.20
2019-02-03T12:30:40.301Z,23.80
2019-02-03T12:31:40.227Z,24.90
2019-02-03T12:32:40.127Z,23.70
2019-02-03T12:33:40.051Z,24.00
2019-02-03T12:34:39.963Z,24.10
2019-02-03T12:35:39.877Z,23.30
2019-02-03T12:36:40.070Z,23.60
2019-02-03T12:37:39.701Z,23.80
2019-02-03T12:38:39.614Z,23.80
2019-02-03T12:39:39.530Z,24.00
2019-02-03T12:40:39.442Z,23.70
2019-02-03T12:41:39.350Z,23.70
2019-02-03T12:42:39.264Z,23.80
2019-02-03T12:43:39.177Z,24.40
2019-02-03T12:44:39.090Z,25.10
2019-02-03T12:45:39.003Z,23.40
2019-02-03T12:46:39.135Z,24.00
2019-02-03T12:47:38.840Z,23.30
2019-02-03T12:48:38.752Z,25.30
2019-02-03T12:49:38.680Z,24.50
2019-02-03T12:50:38.580Z,23.40
2019-02-03T12:51:40.073Z,25.60
2019-02-03T12:52:38.402Z,24.80
2019-02-03T12:53:38.315Z,23.40
2019-02-03T12:54:38.230Z,24.20
2019-02-03T12:55:38.140Z,24.40
2019-02-03T12:56:38.053Z,23.60
2019-02-03T12:57:37.966Z,24.20
2019-02-03T12:58:37.879Z,22.50
2019-02-03T12:59:37.790Z,24.80
2019-02-03T13:00:37.704Z,23.50
2019-02-03T13:01:37.631Z,24.40
2019-02-03T13:02:37.542Z,24.10
2019-02-03T13:03:37.454Z,24.30
2019-02-03T13:04:37.373Z,24.00
2019-02-03T13:05:37.279Z,24.60
2019-02-03T13:06:37.197Z,23.80
2019-02-03T13:07:37.103Z,25.10
2019-02-03T13:08:37.016Z,25.00
2019-02-03T13:09:36.929Z,25.80
2019-02-03T13:10:36.843Z,25.70
2019-02-03T13:11:37.593Z,24.10
2019-02-03T13:12:36.667Z,24.80
2019-02-03T13:13:36.578Z,25.40
2019-02-03T13:14:36.493Z,25.50
2019-02-03T13:15:36.404Z,24.70
2019-02-03T13:16:36.318Z,24.80
2019-02-03T13:17:36.229Z,25.10
2019-02-03T13:18:36.155Z,25.10
2019-02-03T13:19:36.055Z,25.70
2019-02-03T13:20:35.972Z,23.90
2019-02-03T13:21:35.893Z,24.60
2019-02-03T13:22:35.805Z,24.40
2019-02-03T13:23:44.607Z,25.00
2019-02-03T13:24:35.631Z,23.90
2019-02-03T13:25:35.544Z,24.60
2019-02-03T13:26:35.458Z,24.30
2019-02-03T13:27:35.368Z,24.70
2019-02-03T13:28:35.445Z,25.20
2019-02-03T13:29:35.196Z,24.50
2019-02-03T13:30:35.106Z,25.80
2019-02-03T13:31:35.019Z,24.60
2019-02-03T13:32:34.945Z,24.40
2019-02-03T13:33:34.845Z,25.40
2019-02-03T13:34:34.756Z,25.30
2019-02-03T13:35:34.671Z,24.30
2019-02-03T13:36:34.581Z,22.60
2019-02-03T13:37:34.498Z,23.50
2019-02-03T13:38:34.547Z,22.60
2019-02-03T13:39:34.320Z,23.40
2019-02-03T13:40:34.235Z,24.10
2019-02-03T13:41:34.145Z,23.10
2019-02-03T13:42:37.625Z,24.00
2019-02-03T13:43:33.984Z,23.50
2019-02-03T13:44:33.884Z,22.70
2019-02-03T13:45:33.808Z,22.80
2019-02-03T13:46:33.721Z,22.60
2019-02-03T13:47:33.634Z,23.20
2019-02-03T13:48:33.546Z,22.50
2019-02-03T13:49:33.470Z,23.00
2019-02-03T13:50:33.373Z,22.70
2019-02-03T13:51:33.283Z,22.00
2019-02-03T13:52:33.197Z,22.70
2019-02-03T13:53:33.108Z,22.20
2019-02-03T13:54:33.022Z,23.10
2019-02-03T13:55:32.933Z,22.40
2019-02-03T13:56:32.847Z,20.40
2019-02-03T13:57:32.759Z,21.80
2019-02-03T13:58:37.029Z,20.50
2019-02-03T13:59:32.585Z,20.50
2019-02-03T14:00:32.497Z,21.30
2019-02-03T14:01:32.422Z,21.10
2019-02-03T14:02:32.334Z,20.90
2019-02-03T14:03:32.236Z,21.40
2019-02-03T14:04:32.159Z,20.30
2019-02-03T14:05:32.073Z,20.50
2019-02-03T14:06:31.985Z,20.00
2019-02-03T14:07:31.898Z,20.40
2019-02-03T14:08:31.822Z,21.30
2019-02-03T14:09:31.723Z,21.00
2019-02-03T14:10:31.636Z,20.20
2019-02-03T14:11:31.553Z,20.40
2019-02-03T14:12:31.460Z,19.30
2019-02-03T14:13:31.374Z,19.60
2019-02-03T14:14:31.297Z,18.20
2019-02-03T14:15:31.198Z,18.70
2019-02-03T14:16:31.111Z,19.30
2019-02-03T14:17:31.024Z,18.70
2019-02-03T14:18:30.936Z,18.20
2019-02-03T14:19:30.883Z,19.00
2019-02-03T14:20:30.764Z,18.90
2019-02-03T14:21:30.687Z,19.90
2019-02-03T14:22:30.600Z,19.80
2019-02-03T14:23:30.545Z,20.30
2019-02-03T14:24:33.012Z,20.10
2019-02-03T14:25:30.351Z,19.80
2019-02-03T14:26:30.252Z,20.80
2019-02-03T14:27:30.942Z,19.60
2019-02-03T14:28:30.076Z,19.80
2019-02-03T14:29:29.988Z,20.00
2019-02-03T14:30:39.746Z,20.30
2019-02-03T14:31:29.813Z,20.40
2019-02-03T14:32:29.725Z,19.80
2019-02-03T14:33:29.637Z,20.00
2019-02-03T14:34:29.551Z,18.30
2019-02-03T14:35:29.465Z,19.30
2019-02-03T14:36:29.376Z,18.40
2019-02-03T14:37:29.301Z,18.80
2019-02-03T14:38:32.384Z,19.20
2019-02-03T14:39:29.113Z,18.50
2019-02-03T14:40:29.038Z,17.70
2019-02-03T14:41:28.952Z,18.10
2019-02-03T14:42:28.863Z,18.90
2019-02-03T14:43:28.779Z,18.80
2019-02-03T14:44:28.702Z,17.10
2019-02-03T14:45:28.605Z,18.20
2019-02-03T14:46:28.516Z,17.10
2019-02-03T14:47:28.431Z,17.40
2019-02-03T14:48:28.338Z,17.80
2019-02-03T14:49:28.255Z,17.70
2019-02-03T14:50:28.164Z,18.70
2019-02-03T14:51:28.078Z,17.70
2019-02-03T14:52:28.003Z,17.30
2019-02-03T14:53:27.904Z,17.40
2019-02-03T14:54:27.815Z,17.30
2019-02-03T14:55:27.734Z,16.40
2019-02-03T14:56:27.640Z,16.80
2019-02-03T14:57:27.553Z,16.00
2019-02-03T14:58:27.467Z,17.70
2019-02-03T14:59:27.391Z,17.10
2019-02-03T15:00:27.307Z,17.30
2019-02-03T15:01:27.215Z,16.50
2019-02-03T15:02:27.139Z,17.40
2019-02-03T15:03:27.127Z,17.10
2019-02-03T15:04:27.050Z,17.00
2019-02-03T15:05:26.869Z,16.40
2019-02-03T15:06:26.784Z,15.40
2019-02-03T15:07:37.263Z,15.70
2019-02-03T15:08:26.605Z,16.10
2019-02-03T15:09:26.516Z,15.90
2019-02-03T15:10:26.429Z,15.50
2019-02-03T15:11:26.343Z,16.60
2019-02-03T15:12:26.254Z,16.50
2019-02-03T15:13:26.176Z,15.20
2019-02-03T15:14:26.083Z,15.60
2019-02-03T15:15:26.006Z,15.50
2019-02-03T15:16:25.905Z,16.00
2019-02-03T15:17:25.817Z,15.20
2019-02-03T15:18:25.755Z,15.60
2019-02-03T15:19:25.727Z,15.10
2019-02-03T15:20:25.567Z,14.70
2019-02-03T15:21:25.481Z,14.80
2019-02-03T15:22:25.394Z,15.10
2019-02-03T15:23:25.309Z,15.10
2019-02-03T15:24:25.219Z,15.60
2019-02-03T15:25:25.137Z,16.50
2019-02-03T15:26:25.043Z,16.30
2019-02-03T15:27:24.956Z,15.40
2019-02-03T15:28:24.868Z,15.60
2019-02-03T15:29:24.784Z,15.30
2019-02-03T15:30:24.694Z,15.90
2019-02-03T15:31:24.607Z,15.40
2019-02-03T15:32:24.531Z,16.00
2019-02-03T15:33:24.431Z,16.20
2019-02-03T15:34:24.345Z,15.50
2019-02-03T15:35:24.257Z,15.40
2019-02-03T15:36:24.169Z,16.00
2019-02-03T15:37:24.082Z,15.30
2019-02-03T15:38:23.994Z,15.30
2019-02-03T15:39:23.910Z,15.60
2019-02-03T15:40:23.821Z,14.60
2019-02-03T15:41:23.734Z,15.80
2019-02-03T15:42:23.646Z,15.10
2019-02-03T15:43:25.571Z,15.10
2019-02-03T15:44:23.485Z,15.20
2019-02-03T15:45:23.398Z,14.80
2019-02-03T15:46:23.313Z,15.20
2019-02-03T15:47:23.220Z,14.90
2019-02-03T15:48:23.133Z,15.10
2019-02-03T15:49:23.045Z,15.50
2019-02-03T15:50:22.958Z,15.10
2019-02-03T15:51:22.871Z,15.20
2019-02-03T15:52:22.786Z,15.10
2019-02-03T15:53:22.695Z,14.70
2019-02-03T15:54:22.609Z,15.20
2019-02-03T15:55:22.521Z,14.50
2019-02-03T15:56:22.434Z,14.60
2019-02-03T15:57:22.346Z,14.90
2019-02-03T15:58:22.260Z,14.30
2019-02-03T15:59:22.171Z,15.70
2019-02-03T16:00:22.084Z,14.60
2019-02-03T16:01:22.010Z,14.70
2019-02-03T16:02:21.910Z,14.10
2019-02-03T16:03:21.822Z,14.00
2019-02-03T16:04:21.736Z,13.40
2019-02-03T16:05:21.646Z,13.90
2019-02-03T16:06:21.571Z,14.50
2019-02-03T16:07:21.472Z,13.80
2019-02-03T16:08:21.385Z,15.00
2019-02-03T16:09:21.298Z,14.10
2019-02-03T16:10:21.211Z,13.70
2019-02-03T16:11:21.123Z,15.10
2019-02-03T16:12:21.041Z,13.80
2019-02-03T16:13:20.961Z,14.20
2019-02-03T16:14:20.872Z,15.10
2019-02-03T16:15:20.786Z,13.80
2019-02-03T16:16:20.698Z,14.00
2019-02-03T16:17:20.612Z,13.80
2019-02-03T16:18:20.524Z,14.30
2019-02-03T16:19:20.437Z,14.00
2019-02-03T16:20:20.363Z,14.80
2019-02-03T16:21:20.261Z,14.90
2019-02-03T16:22:20.174Z,13.80
2019-02-03T16:23:20.094Z,13.80
2019-02-03T16:24:20.000Z,13.50
2019-02-03T16:25:22.328Z,14.40
2019-02-03T16:26:19.824Z,13.80
2019-02-03T16:27:19.743Z,13.90
2019-02-03T16:28:19.649Z,13.90
2019-02-03T16:29:19.563Z,14.30
2019-02-03T16:30:19.476Z,13.80
2019-02-03T16:31:19.400Z,14.30
2019-02-03T16:32:19.299Z,14.70
2019-02-03T16:33:19.212Z,14.30
2019-02-03T16:34:19.128Z,15.00
2019-02-03T16:35:19.038Z,14.80
2019-02-03T16:36:18.950Z,14.30
2019-02-03T16:37:18.863Z,14.40
2019-02-03T16:38:23.158Z,14.30
2019-02-03T16:39:18.696Z,14.40